sensor_id;sensor_type;location;lat;lon;timestamp;P1;durP1;ratioP1;P2;durP2;ratioP2
47155;SDS011;32908;52.344;16.858;2023-04-24T00:01:38;23.40;;;16.50;;
47155;SDS011;32908;52.344;16.858;2023-04-24T00:04:06;26.00;;;17.40;;
47155;SDS011;32908;52.344;16.858;2023-04-24T00:06:36;24.70;;;16.60;;
47155;SDS011;32908;52.344;16.858;2023-04-24T00:09:04;25.30;;;16.70;;
47155;SDS011;32908;52.344;16.858;2023-04-24T00:11:32;23.90;;;16.30;;
47155;SDS011;32908;52.344;16.858;2023-04-24T00:14:00;25.50;;;16.30;;
47155;SDS011;32908;52.344;16.858;2023-04-24T00:16:28;25.30;;;16.50;;
47155;SDS011;32908;52.344;16.858;2023-04-24T00:18:56;30.40;;;16.50;;
47155;SDS011;32908;52.344;16.858;2023-04-24T00:21:24;25.70;;;15.10;;
47155;SDS011;32908;52.344;16.858;2023-04-24T00:23:53;24.80;;;16.00;;
47155;SDS011;32908;52.344;16.858;2023-04-24T00:26:20;27.00;;;16.40;;
47155;SDS011;32908;52.344;16.858;2023-04-24T00:28:49;31.20;;;18.10;;
47155;SDS011;32908;52.344;16.858;2023-04-24T00:31:17;31.70;;;18.50;;
47155;SDS011;32908;52.344;16.858;2023-04-24T00:33:45;31.30;;;19.10;;
47155;SDS011;32908;52.344;16.858;2023-04-24T00:36:13;30.60;;;19.00;;
47155;SDS011;32908;52.344;16.858;2023-04-24T00:38:41;28.00;;;17.70;;
47155;SDS011;32908;52.344;16.858;2023-04-24T00:41:09;24.80;;;17.00;;
47155;SDS011;32908;52.344;16.858;2023-04-24T00:43:37;27.80;;;16.50;;
47155;SDS011;32908;52.344;16.858;2023-04-24T00:46:06;25.80;;;16.70;;
47155;SDS011;32908;52.344;16.858;2023-04-24T00:48:33;25.80;;;17.00;;
47155;SDS011;32908;52.344;16.858;2023-04-24T00:51:02;24.20;;;15.80;;
47155;SDS011;32908;52.344;16.858;2023-04-24T00:53:30;23.20;;;14.50;;
47155;SDS011;32908;52.344;16.858;2023-04-24T00:55:58;20.00;;;13.00;;
47155;SDS011;32908;52.344;16.858;2023-04-24T00:58:27;18.50;;;14.00;;
47155;SDS011;32908;52.344;16.858;2023-04-24T01:00:55;20.20;;;13.30;;
47155;SDS011;32908;52.344;16.858;2023-04-24T01:03:25;23.20;;;13.90;;
47155;SDS011;32908;52.344;16.858;2023-04-24T01:05:56;24.40;;;15.40;;
47155;SDS011;32908;52.344;16.858;2023-04-24T01:08:24;20.90;;;14.00;;
47155;SDS011;32908;52.344;16.858;2023-04-24T01:10:52;19.40;;;14.60;;
47155;SDS011;32908;52.344;16.858;2023-04-24T01:13:20;18.70;;;14.20;;
47155;SDS011;32908;52.344;16.858;2023-04-24T01:15:49;17.50;;;13.00;;
47155;SDS011;32908;52.344;16.858;2023-04-24T01:18:16;17.30;;;13.30;;
47155;SDS011;32908;52.344;16.858;2023-04-24T01:20:45;17.90;;;13.10;;
47155;SDS011;32908;52.344;16.858;2023-04-24T01:23:13;19.20;;;12.50;;
47155;SDS011;32908;52.344;16.858;2023-04-24T01:25:42;17.70;;;14.10;;
47155;SDS011;32908;52.344;16.858;2023-04-24T01:28:10;22.00;;;14.30;;
47155;SDS011;32908;52.344;16.858;2023-04-24T01:30:40;19.80;;;13.40;;
47155;SDS011;32908;52.344;16.858;2023-04-24T01:33:08;19.40;;;13.20;;
47155;SDS011;32908;52.344;16.858;2023-04-24T01:35:36;18.20;;;13.50;;
47155;SDS011;32908;52.344;16.858;2023-04-24T01:38:04;21.20;;;13.50;;
47155;SDS011;32908;52.344;16.858;2023-04-24T01:40:32;18.40;;;13.60;;
47155;SDS011;32908;52.344;16.858;2023-04-24T01:43:02;20.50;;;13.90;;
47155;SDS011;32908;52.344;16.858;2023-04-24T01:45:30;19.70;;;14.10;;
47155;SDS011;32908;52.344;16.858;2023-04-24T01:47:58;25.20;;;15.70;;
47155;SDS011;32908;52.344;16.858;2023-04-24T01:50:26;22.30;;;15.10;;
47155;SDS011;32908;52.344;16.858;2023-04-24T01:52:54;21.80;;;14.30;;
47155;SDS011;32908;52.344;16.858;2023-04-24T01:55:22;21.10;;;14.30;;
47155;SDS011;32908;52.344;16.858;2023-04-24T01:57:49;20.10;;;13.00;;
47155;SDS011;32908;52.344;16.858;2023-04-24T02:00:17;18.50;;;13.00;;
47155;SDS011;32908;52.344;16.858;2023-04-24T02:02:45;17.70;;;13.30;;
47155;SDS011;32908;52.344;16.858;2023-04-24T02:05:13;17.00;;;12.70;;
47155;SDS011;32908;52.344;16.858;2023-04-24T02:07:41;14.80;;;12.30;;
47155;SDS011;32908;52.344;16.858;2023-04-24T02:10:10;15.40;;;11.50;;
47155;SDS011;32908;52.344;16.858;2023-04-24T02:12:38;13.40;;;11.10;;
47155;SDS011;32908;52.344;16.858;2023-04-24T02:15:06;17.00;;;12.00;;
47155;SDS011;32908;52.344;16.858;2023-04-24T02:17:34;14.70;;;12.10;;
47155;SDS011;32908;52.344;16.858;2023-04-24T02:20:03;15.80;;;12.10;;
47155;SDS011;32908;52.344;16.858;2023-04-24T02:22:32;14.70;;;11.90;;
47155;SDS011;32908;52.344;16.858;2023-04-24T02:24:59;15.40;;;11.90;;
47155;SDS011;32908;52.344;16.858;2023-04-24T02:27:27;14.00;;;11.40;;
47155;SDS011;32908;52.344;16.858;2023-04-24T02:29:55;14.30;;;11.20;;
47155;SDS011;32908;52.344;16.858;2023-04-24T02:32:23;13.80;;;11.00;;
47155;SDS011;32908;52.344;16.858;2023-04-24T02:34:51;17.10;;;11.90;;
47155;SDS011;32908;52.344;16.858;2023-04-24T02:37:19;15.30;;;11.60;;
47155;SDS011;32908;52.344;16.858;2023-04-24T02:39:47;14.70;;;11.60;;
47155;SDS011;32908;52.344;16.858;2023-04-24T02:42:15;16.10;;;11.20;;
47155;SDS011;32908;52.344;16.858;2023-04-24T02:44:43;14.50;;;11.80;;
47155;SDS011;32908;52.344;16.858;2023-04-24T02:47:11;14.70;;;11.90;;
47155;SDS011;32908;52.344;16.858;2023-04-24T02:49:38;17.80;;;12.10;;
47155;SDS011;32908;52.344;16.858;2023-04-24T02:52:06;15.50;;;11.20;;
47155;SDS011;32908;52.344;16.858;2023-04-24T02:54:34;15.00;;;10.80;;
47155;SDS011;32908;52.344;16.858;2023-04-24T02:57:02;21.40;;;13.60;;
47155;SDS011;32908;52.344;16.858;2023-04-24T02:59:30;21.80;;;14.00;;
47155;SDS011;32908;52.344;16.858;2023-04-24T03:01:58;25.50;;;15.30;;
47155;SDS011;32908;52.344;16.858;2023-04-24T03:04:26;28.70;;;15.60;;
47155;SDS011;32908;52.344;16.858;2023-04-24T03:06:54;21.70;;;13.60;;
47155;SDS011;32908;52.344;16.858;2023-04-24T03:09:22;19.80;;;12.70;;
47155;SDS011;32908;52.344;16.858;2023-04-24T03:11:50;15.60;;;11.60;;
47155;SDS011;32908;52.344;16.858;2023-04-24T03:14:18;17.90;;;12.10;;
47155;SDS011;32908;52.344;16.858;2023-04-24T03:16:46;17.60;;;12.20;;
47155;SDS011;32908;52.344;16.858;2023-04-24T03:19:14;15.60;;;10.90;;
47155;SDS011;32908;52.344;16.858;2023-04-24T03:21:42;13.00;;;10.70;;
47155;SDS011;32908;52.344;16.858;2023-04-24T03:24:10;13.50;;;10.20;;
47155;SDS011;32908;52.344;16.858;2023-04-24T03:26:38;12.30;;;9.50;;
47155;SDS011;32908;52.344;16.858;2023-04-24T03:29:06;12.30;;;10.10;;
47155;SDS011;32908;52.344;16.858;2023-04-24T03:31:34;12.50;;;9.40;;
47155;SDS011;32908;52.344;16.858;2023-04-24T03:34:02;13.30;;;10.10;;
47155;SDS011;32908;52.344;16.858;2023-04-24T03:36:30;12.20;;;10.30;;
47155;SDS011;32908;52.344;16.858;2023-04-24T03:38:58;12.50;;;9.40;;
47155;SDS011;32908;52.344;16.858;2023-04-24T03:41:26;11.70;;;9.40;;
47155;SDS011;32908;52.344;16.858;2023-04-24T03:43:54;11.40;;;9.50;;
47155;SDS011;32908;52.344;16.858;2023-04-24T03:46:22;11.90;;;8.90;;
47155;SDS011;32908;52.344;16.858;2023-04-24T03:48:50;10.70;;;9.20;;
47155;SDS011;32908;52.344;16.858;2023-04-24T03:51:18;13.10;;;9.40;;
47155;SDS011;32908;52.344;16.858;2023-04-24T03:53:46;12.20;;;9.00;;
47155;SDS011;32908;52.344;16.858;2023-04-24T03:56:14;13.10;;;9.10;;
47155;SDS011;32908;52.344;16.858;2023-04-24T03:58:41;11.50;;;9.30;;
47155;SDS011;32908;52.344;16.858;2023-04-24T04:01:09;11.00;;;9.20;;
47155;SDS011;32908;52.344;16.858;2023-04-24T04:03:38;11.40;;;8.80;;
47155;SDS011;32908;52.344;16.858;2023-04-24T04:06:06;10.10;;;8.90;;
47155;SDS011;32908;52.344;16.858;2023-04-24T04:08:34;10.20;;;9.10;;
47155;SDS011;32908;52.344;16.858;2023-04-24T04:11:02;15.60;;;10.30;;
47155;SDS011;32908;52.344;16.858;2023-04-24T04:13:30;16.60;;;11.30;;
47155;SDS011;32908;52.344;16.858;2023-04-24T04:15:58;17.80;;;12.00;;
47155;SDS011;32908;52.344;16.858;2023-04-24T04:18:26;19.90;;;12.30;;
47155;SDS011;32908;52.344;16.858;2023-04-24T04:20:54;16.30;;;11.70;;
47155;SDS011;32908;52.344;16.858;2023-04-24T04:23:23;13.50;;;9.80;;
47155;SDS011;32908;52.344;16.858;2023-04-24T04:25:51;12.00;;;10.30;;
47155;SDS011;32908;52.344;16.858;2023-04-24T04:28:19;14.30;;;10.80;;
47155;SDS011;32908;52.344;16.858;2023-04-24T04:30:47;15.20;;;12.00;;
47155;SDS011;32908;52.344;16.858;2023-04-24T04:33:15;14.40;;;12.20;;
47155;SDS011;32908;52.344;16.858;2023-04-24T04:35:44;15.50;;;11.40;;
47155;SDS011;32908;52.344;16.858;2023-04-24T04:38:15;14.40;;;11.30;;
47155;SDS011;32908;52.344;16.858;2023-04-24T04:40:43;12.20;;;10.10;;
47155;SDS011;32908;52.344;16.858;2023-04-24T04:43:11;14.40;;;10.10;;
47155;SDS011;32908;52.344;16.858;2023-04-24T04:45:41;14.30;;;9.70;;
47155;SDS011;32908;52.344;16.858;2023-04-24T04:48:09;13.20;;;9.90;;
47155;SDS011;32908;52.344;16.858;2023-04-24T04:50:39;12.10;;;10.30;;
47155;SDS011;32908;52.344;16.858;2023-04-24T04:53:07;10.80;;;9.40;;
47155;SDS011;32908;52.344;16.858;2023-04-24T04:55:35;15.50;;;9.50;;
47155;SDS011;32908;52.344;16.858;2023-04-24T04:58:03;10.20;;;8.90;;
47155;SDS011;32908;52.344;16.858;2023-04-24T05:00:32;10.70;;;9.50;;
47155;SDS011;32908;52.344;16.858;2023-04-24T05:03:02;12.10;;;9.50;;
47155;SDS011;32908;52.344;16.858;2023-04-24T05:05:30;13.70;;;9.80;;
47155;SDS011;32908;52.344;16.858;2023-04-24T05:07:58;12.40;;;9.70;;
47155;SDS011;32908;52.344;16.858;2023-04-24T05:10:25;11.50;;;9.40;;
47155;SDS011;32908;52.344;16.858;2023-04-24T05:12:53;11.20;;;9.50;;
47155;SDS011;32908;52.344;16.858;2023-04-24T05:15:21;11.70;;;9.60;;
47155;SDS011;32908;52.344;16.858;2023-04-24T05:17:49;9.80;;;8.70;;
47155;SDS011;32908;52.344;16.858;2023-04-24T05:20:17;12.10;;;9.50;;
47155;SDS011;32908;52.344;16.858;2023-04-24T05:22:45;14.90;;;9.60;;
47155;SDS011;32908;52.344;16.858;2023-04-24T05:25:13;12.40;;;9.90;;
47155;SDS011;32908;52.344;16.858;2023-04-24T05:27:41;11.70;;;10.00;;
47155;SDS011;32908;52.344;16.858;2023-04-24T05:30:10;10.60;;;8.60;;
47155;SDS011;32908;52.344;16.858;2023-04-24T05:32:39;12.10;;;9.90;;
47155;SDS011;32908;52.344;16.858;2023-04-24T05:35:07;13.10;;;9.80;;
47155;SDS011;32908;52.344;16.858;2023-04-24T05:37:35;11.20;;;8.70;;
47155;SDS011;32908;52.344;16.858;2023-04-24T05:40:04;11.40;;;10.00;;
47155;SDS011;32908;52.344;16.858;2023-04-24T05:42:33;13.10;;;9.80;;
47155;SDS011;32908;52.344;16.858;2023-04-24T05:45:01;12.10;;;10.10;;
47155;SDS011;32908;52.344;16.858;2023-04-24T05:47:30;10.90;;;9.60;;
47155;SDS011;32908;52.344;16.858;2023-04-24T05:49:59;11.30;;;9.60;;
47155;SDS011;32908;52.344;16.858;2023-04-24T05:52:26;12.50;;;9.60;;
47155;SDS011;32908;52.344;16.858;2023-04-24T05:54:54;12.80;;;8.70;;
47155;SDS011;32908;52.344;16.858;2023-04-24T05:57:22;12.90;;;9.60;;
47155;SDS011;32908;52.344;16.858;2023-04-24T05:59:50;11.40;;;9.10;;
47155;SDS011;32908;52.344;16.858;2023-04-24T06:02:19;11.50;;;9.80;;
47155;SDS011;32908;52.344;16.858;2023-04-24T06:04:46;13.10;;;9.80;;
47155;SDS011;32908;52.344;16.858;2023-04-24T06:07:14;14.50;;;10.20;;
47155;SDS011;32908;52.344;16.858;2023-04-24T06:09:42;12.20;;;9.40;;
47155;SDS011;32908;52.344;16.858;2023-04-24T06:12:10;12.70;;;9.00;;
47155;SDS011;32908;52.344;16.858;2023-04-24T06:14:38;15.40;;;9.60;;
47155;SDS011;32908;52.344;16.858;2023-04-24T06:17:06;9.80;;;8.50;;
47155;SDS011;32908;52.344;16.858;2023-04-24T06:19:34;12.00;;;9.70;;
47155;SDS011;32908;52.344;16.858;2023-04-24T06:22:02;13.10;;;9.90;;
47155;SDS011;32908;52.344;16.858;2023-04-24T06:24:30;11.90;;;10.00;;
47155;SDS011;32908;52.344;16.858;2023-04-24T06:26:58;13.90;;;9.60;;
47155;SDS011;32908;52.344;16.858;2023-04-24T06:29:27;10.30;;;9.20;;
47155;SDS011;32908;52.344;16.858;2023-04-24T06:31:55;13.40;;;9.90;;
47155;SDS011;32908;52.344;16.858;2023-04-24T06:34:23;13.00;;;9.50;;
47155;SDS011;32908;52.344;16.858;2023-04-24T06:36:51;12.50;;;9.70;;
47155;SDS011;32908;52.344;16.858;2023-04-24T06:39:19;11.80;;;10.20;;
47155;SDS011;32908;52.344;16.858;2023-04-24T06:41:47;14.60;;;9.40;;
47155;SDS011;32908;52.344;16.858;2023-04-24T06:44:15;13.20;;;9.90;;
47155;SDS011;32908;52.344;16.858;2023-04-24T06:46:43;12.80;;;9.70;;
47155;SDS011;32908;52.344;16.858;2023-04-24T06:49:11;12.40;;;9.50;;
47155;SDS011;32908;52.344;16.858;2023-04-24T06:51:42;12.00;;;9.90;;
47155;SDS011;32908;52.344;16.858;2023-04-24T06:54:09;12.50;;;10.50;;
47155;SDS011;32908;52.344;16.858;2023-04-24T06:56:37;15.10;;;10.20;;
47155;SDS011;32908;52.344;16.858;2023-04-24T06:59:05;11.50;;;10.10;;
47155;SDS011;32908;52.344;16.858;2023-04-24T07:01:33;11.70;;;10.00;;
47155;SDS011;32908;52.344;16.858;2023-04-24T07:04:01;10.40;;;9.00;;
47155;SDS011;32908;52.344;16.858;2023-04-24T07:06:29;11.70;;;9.60;;
47155;SDS011;32908;52.344;16.858;2023-04-24T07:08:58;14.50;;;11.00;;
47155;SDS011;32908;52.344;16.858;2023-04-24T07:11:28;16.00;;;11.40;;
47155;SDS011;32908;52.344;16.858;2023-04-24T07:13:56;12.40;;;11.00;;
47155;SDS011;32908;52.344;16.858;2023-04-24T07:16:24;13.30;;;11.00;;
47155;SDS011;32908;52.344;16.858;2023-04-24T07:18:52;13.00;;;11.40;;
47155;SDS011;32908;52.344;16.858;2023-04-24T07:21:20;17.60;;;11.40;;
47155;SDS011;32908;52.344;16.858;2023-04-24T07:23:48;15.50;;;11.30;;
47155;SDS011;32908;52.344;16.858;2023-04-24T07:26:16;14.50;;;11.00;;
47155;SDS011;32908;52.344;16.858;2023-04-24T07:28:44;13.40;;;11.00;;
47155;SDS011;32908;52.344;16.858;2023-04-24T07:31:12;14.20;;;11.00;;
47155;SDS011;32908;52.344;16.858;2023-04-24T07:33:40;14.10;;;11.10;;
47155;SDS011;32908;52.344;16.858;2023-04-24T07:36:07;13.90;;;11.10;;
47155;SDS011;32908;52.344;16.858;2023-04-24T07:38:41;13.10;;;10.60;;
47155;SDS011;32908;52.344;16.858;2023-04-24T07:41:09;11.80;;;10.10;;
47155;SDS011;32908;52.344;16.858;2023-04-24T07:43:37;13.70;;;10.50;;
47155;SDS011;32908;52.344;16.858;2023-04-24T07:46:05;16.30;;;9.00;;
47155;SDS011;32908;52.344;16.858;2023-04-24T07:48:33;11.90;;;10.50;;
47155;SDS011;32908;52.344;16.858;2023-04-24T07:51:01;12.90;;;9.70;;
47155;SDS011;32908;52.344;16.858;2023-04-24T07:53:29;11.30;;;9.70;;
47155;SDS011;32908;52.344;16.858;2023-04-24T07:55:57;11.60;;;9.20;;
47155;SDS011;32908;52.344;16.858;2023-04-24T07:58:25;12.40;;;9.30;;
47155;SDS011;32908;52.344;16.858;2023-04-24T08:00:53;11.20;;;8.60;;
47155;SDS011;32908;52.344;16.858;2023-04-24T08:03:21;12.80;;;9.10;;
47155;SDS011;32908;52.344;16.858;2023-04-24T08:05:49;10.90;;;9.00;;
47155;SDS011;32908;52.344;16.858;2023-04-24T08:08:18;11.90;;;9.40;;
47155;SDS011;32908;52.344;16.858;2023-04-24T08:10:47;12.50;;;9.00;;
47155;SDS011;32908;52.344;16.858;2023-04-24T08:13:15;10.30;;;8.50;;
47155;SDS011;32908;52.344;16.858;2023-04-24T08:15:43;10.70;;;8.80;;
47155;SDS011;32908;52.344;16.858;2023-04-24T08:18:11;12.40;;;9.70;;
47155;SDS011;32908;52.344;16.858;2023-04-24T08:20:41;10.90;;;9.40;;
47155;SDS011;32908;52.344;16.858;2023-04-24T08:23:10;14.00;;;9.70;;
47155;SDS011;32908;52.344;16.858;2023-04-24T08:25:38;12.50;;;9.30;;
47155;SDS011;32908;52.344;16.858;2023-04-24T08:28:06;12.30;;;9.70;;
47155;SDS011;32908;52.344;16.858;2023-04-24T08:30:35;11.00;;;8.80;;
47155;SDS011;32908;52.344;16.858;2023-04-24T08:33:03;12.10;;;9.50;;
47155;SDS011;32908;52.344;16.858;2023-04-24T08:35:31;10.90;;;8.40;;
47155;SDS011;32908;52.344;16.858;2023-04-24T08:37:59;12.90;;;9.20;;
47155;SDS011;32908;52.344;16.858;2023-04-24T08:40:27;11.70;;;9.40;;
47155;SDS011;32908;52.344;16.858;2023-04-24T08:42:56;16.40;;;11.00;;
47155;SDS011;32908;52.344;16.858;2023-04-24T08:45:24;14.60;;;9.30;;
47155;SDS011;32908;52.344;16.858;2023-04-24T08:47:53;12.90;;;9.20;;
47155;SDS011;32908;52.344;16.858;2023-04-24T08:50:21;15.90;;;10.40;;
47155;SDS011;32908;52.344;16.858;2023-04-24T08:52:50;18.40;;;12.00;;
47155;SDS011;32908;52.344;16.858;2023-04-24T08:55:20;15.00;;;11.10;;
47155;SDS011;32908;52.344;16.858;2023-04-24T08:57:50;14.00;;;10.20;;
47155;SDS011;32908;52.344;16.858;2023-04-24T09:00:20;11.50;;;9.80;;
47155;SDS011;32908;52.344;16.858;2023-04-24T09:02:49;12.10;;;8.90;;
47155;SDS011;32908;52.344;16.858;2023-04-24T09:05:19;11.90;;;8.90;;
47155;SDS011;32908;52.344;16.858;2023-04-24T09:07:49;9.60;;;8.20;;
47155;SDS011;32908;52.344;16.858;2023-04-24T09:10:20;9.90;;;7.90;;
47155;SDS011;32908;52.344;16.858;2023-04-24T09:12:48;10.40;;;8.10;;
47155;SDS011;32908;52.344;16.858;2023-04-24T09:15:17;9.00;;;7.40;;
47155;SDS011;32908;52.344;16.858;2023-04-24T09:17:46;8.60;;;7.60;;
47155;SDS011;32908;52.344;16.858;2023-04-24T09:20:14;8.00;;;6.80;;
47155;SDS011;32908;52.344;16.858;2023-04-24T09:22:42;7.20;;;6.50;;
47155;SDS011;32908;52.344;16.858;2023-04-24T09:25:10;7.20;;;5.80;;
47155;SDS011;32908;52.344;16.858;2023-04-24T09:27:41;7.90;;;6.50;;
47155;SDS011;32908;52.344;16.858;2023-04-24T09:30:11;7.10;;;6.20;;
47155;SDS011;32908;52.344;16.858;2023-04-24T09:32:40;6.10;;;5.50;;
47155;SDS011;32908;52.344;16.858;2023-04-24T09:35:09;7.50;;;5.70;;
47155;SDS011;32908;52.344;16.858;2023-04-24T09:37:41;6.50;;;5.80;;
47155;SDS011;32908;52.344;16.858;2023-04-24T09:40:11;9.10;;;5.80;;
47155;SDS011;32908;52.344;16.858;2023-04-24T09:42:41;6.70;;;5.70;;
47155;SDS011;32908;52.344;16.858;2023-04-24T09:45:12;8.00;;;6.00;;
47155;SDS011;32908;52.344;16.858;2023-04-24T09:47:40;8.60;;;6.90;;
47155;SDS011;32908;52.344;16.858;2023-04-24T09:50:14;7.20;;;6.40;;
47155;SDS011;32908;52.344;16.858;2023-04-24T09:52:44;7.20;;;6.20;;
47155;SDS011;32908;52.344;16.858;2023-04-24T09:55:19;9.10;;;6.50;;
47155;SDS011;32908;52.344;16.858;2023-04-24T09:57:47;7.50;;;6.80;;
47155;SDS011;32908;52.344;16.858;2023-04-24T10:00:22;7.40;;;6.60;;
47155;SDS011;32908;52.344;16.858;2023-04-24T10:02:51;7.60;;;6.60;;
47155;SDS011;32908;52.344;16.858;2023-04-24T10:05:26;8.80;;;6.70;;
47155;SDS011;32908;52.344;16.858;2023-04-24T10:07:59;10.00;;;6.90;;
47155;SDS011;32908;52.344;16.858;2023-04-24T10:10:29;7.80;;;6.80;;
47155;SDS011;32908;52.344;16.858;2023-04-24T10:12:57;8.10;;;6.30;;
47155;SDS011;32908;52.344;16.858;2023-04-24T10:15:25;7.70;;;6.90;;
47155;SDS011;32908;52.344;16.858;2023-04-24T10:17:53;8.60;;;7.10;;
47155;SDS011;32908;52.344;16.858;2023-04-24T10:20:22;11.20;;;7.40;;
47155;SDS011;32908;52.344;16.858;2023-04-24T10:22:51;11.90;;;7.70;;
47155;SDS011;32908;52.344;16.858;2023-04-24T10:25:21;9.30;;;7.60;;
47155;SDS011;32908;52.344;16.858;2023-04-24T10:27:51;7.50;;;6.50;;
47155;SDS011;32908;52.344;16.858;2023-04-24T10:30:23;8.50;;;7.00;;
47155;SDS011;32908;52.344;16.858;2023-04-24T10:32:51;7.60;;;6.80;;
47155;SDS011;32908;52.344;16.858;2023-04-24T10:35:19;9.80;;;6.70;;
47155;SDS011;32908;52.344;16.858;2023-04-24T10:37:50;8.60;;;7.10;;
47155;SDS011;32908;52.344;16.858;2023-04-24T10:40:25;8.50;;;6.50;;
47155;SDS011;32908;52.344;16.858;2023-04-24T10:42:54;7.60;;;6.90;;
47155;SDS011;32908;52.344;16.858;2023-04-24T10:45:23;7.50;;;6.70;;
47155;SDS011;32908;52.344;16.858;2023-04-24T10:47:53;9.30;;;6.20;;
47155;SDS011;32908;52.344;16.858;2023-04-24T10:50:42;7.80;;;6.10;;
47155;SDS011;32908;52.344;16.858;2023-04-24T10:53:15;6.30;;;5.70;;
47155;SDS011;32908;52.344;16.858;2023-04-24T10:55:46;8.40;;;5.90;;
47155;SDS011;32908;52.344;16.858;2023-04-24T10:58:14;6.60;;;5.10;;
47155;SDS011;32908;52.344;16.858;2023-04-24T11:00:43;4.50;;;4.10;;
47155;SDS011;32908;52.344;16.858;2023-04-24T11:03:25;4.10;;;3.60;;
47155;SDS011;32908;52.344;16.858;2023-04-24T11:05:58;4.10;;;3.60;;
47155;SDS011;32908;52.344;16.858;2023-04-24T11:08:31;4.10;;;3.10;;
47155;SDS011;32908;52.344;16.858;2023-04-24T11:16:31;4.60;;;3.50;;
47155;SDS011;32908;52.344;16.858;2023-04-24T11:19:02;3.60;;;3.30;;
47155;SDS011;32908;52.344;16.858;2023-04-24T11:24:24;4.60;;;3.20;;
47155;SDS011;32908;52.344;16.858;2023-04-24T11:26:53;3.20;;;2.90;;
47155;SDS011;32908;52.344;16.858;2023-04-24T11:29:23;4.30;;;3.10;;
47155;SDS011;32908;52.344;16.858;2023-04-24T11:32:14;4.00;;;3.10;;
47155;SDS011;32908;52.344;16.858;2023-04-24T11:34:46;2.90;;;2.70;;
47155;SDS011;32908;52.344;16.858;2023-04-24T11:37:17;3.80;;;2.20;;
47155;SDS011;32908;52.344;16.858;2023-04-24T11:39:45;3.20;;;2.30;;
47155;SDS011;32908;52.344;16.858;2023-04-24T11:42:14;3.90;;;2.30;;
47155;SDS011;32908;52.344;16.858;2023-04-24T11:44:42;3.40;;;2.80;;
47155;SDS011;32908;52.344;16.858;2023-04-24T11:47:11;2.60;;;2.40;;
47155;SDS011;32908;52.344;16.858;2023-04-24T11:49:39;4.20;;;2.70;;
47155;SDS011;32908;52.344;16.858;2023-04-24T11:52:06;3.00;;;2.70;;
47155;SDS011;32908;52.344;16.858;2023-04-24T11:54:35;3.70;;;2.80;;
47155;SDS011;32908;52.344;16.858;2023-04-24T11:57:04;2.90;;;2.70;;
47155;SDS011;32908;52.344;16.858;2023-04-24T11:59:35;4.60;;;2.80;;
47155;SDS011;32908;52.344;16.858;2023-04-24T12:02:04;3.50;;;3.00;;
47155;SDS011;32908;52.344;16.858;2023-04-24T12:04:39;2.70;;;2.50;;
47155;SDS011;32908;52.344;16.858;2023-04-24T12:07:07;5.20;;;4.30;;
47155;SDS011;32908;52.344;16.858;2023-04-24T12:09:42;6.40;;;3.90;;
47155;SDS011;32908;52.344;16.858;2023-04-24T12:12:11;7.70;;;6.40;;
47155;SDS011;32908;52.344;16.858;2023-04-24T12:14:43;5.10;;;3.40;;
47155;SDS011;32908;52.344;16.858;2023-04-24T12:17:11;5.60;;;3.70;;
47155;SDS011;32908;52.344;16.858;2023-04-24T12:19:44;4.60;;;3.20;;
47155;SDS011;32908;52.344;16.858;2023-04-24T12:22:13;4.30;;;3.20;;
47155;SDS011;32908;52.344;16.858;2023-04-24T12:27:28;5.60;;;3.50;;
47155;SDS011;32908;52.344;16.858;2023-04-24T12:29:57;7.20;;;4.50;;
47155;SDS011;32908;52.344;16.858;2023-04-24T12:32:25;5.80;;;5.00;;
47155;SDS011;32908;52.344;16.858;2023-04-24T12:34:54;5.60;;;4.30;;
47155;SDS011;32908;52.344;16.858;2023-04-24T12:37:23;8.10;;;4.50;;
47155;SDS011;32908;52.344;16.858;2023-04-24T12:39:58;4.70;;;4.10;;
47155;SDS011;32908;52.344;16.858;2023-04-24T12:42:27;5.90;;;3.80;;
47155;SDS011;32908;52.344;16.858;2023-04-24T12:44:59;3.70;;;3.40;;
47155;SDS011;32908;52.344;16.858;2023-04-24T12:47:29;4.90;;;3.50;;
47155;SDS011;32908;52.344;16.858;2023-04-24T12:49:57;4.70;;;3.80;;
47155;SDS011;32908;52.344;16.858;2023-04-24T12:52:26;5.10;;;3.90;;
47155;SDS011;32908;52.344;16.858;2023-04-24T12:54:55;4.80;;;4.20;;
47155;SDS011;32908;52.344;16.858;2023-04-24T12:57:24;7.30;;;4.10;;
47155;SDS011;32908;52.344;16.858;2023-04-24T12:59:53;6.40;;;4.00;;
47155;SDS011;32908;52.344;16.858;2023-04-24T13:02:21;2.90;;;2.70;;
47155;SDS011;32908;52.344;16.858;2023-04-24T13:04:49;4.20;;;2.90;;
47155;SDS011;32908;52.344;16.858;2023-04-24T13:07:17;3.70;;;2.90;;
47155;SDS011;32908;52.344;16.858;2023-04-24T13:09:45;2.70;;;2.30;;
47155;SDS011;32908;52.344;16.858;2023-04-24T13:12:14;4.30;;;2.60;;
47155;SDS011;32908;52.344;16.858;2023-04-24T13:14:42;4.70;;;2.50;;
47155;SDS011;32908;52.344;16.858;2023-04-24T13:17:10;3.40;;;2.30;;
47155;SDS011;32908;52.344;16.858;2023-04-24T13:19:40;2.90;;;2.30;;
47155;SDS011;32908;52.344;16.858;2023-04-24T13:22:09;4.90;;;1.90;;
47155;SDS011;32908;52.344;16.858;2023-04-24T13:24:38;3.80;;;2.10;;
47155;SDS011;32908;52.344;16.858;2023-04-24T13:27:07;3.20;;;2.20;;
47155;SDS011;32908;52.344;16.858;2023-04-24T13:29:35;6.00;;;2.50;;
47155;SDS011;32908;52.344;16.858;2023-04-24T13:32:04;2.10;;;1.90;;
47155;SDS011;32908;52.344;16.858;2023-04-24T13:34:32;3.50;;;2.60;;
47155;SDS011;32908;52.344;16.858;2023-04-24T13:37:00;2.00;;;1.70;;
47155;SDS011;32908;52.344;16.858;2023-04-24T13:39:29;2.50;;;1.70;;
47155;SDS011;32908;52.344;16.858;2023-04-24T13:41:57;2.10;;;1.60;;
47155;SDS011;32908;52.344;16.858;2023-04-24T13:44:25;3.90;;;1.20;;
47155;SDS011;32908;52.344;16.858;2023-04-24T13:46:53;3.20;;;1.20;;
47155;SDS011;32908;52.344;16.858;2023-04-24T13:49:23;1.90;;;1.20;;
47155;SDS011;32908;52.344;16.858;2023-04-24T13:51:52;4.00;;;1.10;;
47155;SDS011;32908;52.344;16.858;2023-04-24T13:54:20;3.00;;;1.20;;
47155;SDS011;32908;52.344;16.858;2023-04-24T13:56:49;1.30;;;1.00;;
47155;SDS011;32908;52.344;16.858;2023-04-24T13:59:18;3.50;;;1.20;;
47155;SDS011;32908;52.344;16.858;2023-04-24T14:01:47;4.60;;;1.50;;
47155;SDS011;32908;52.344;16.858;2023-04-24T14:04:15;1.80;;;1.00;;
47155;SDS011;32908;52.344;16.858;2023-04-24T14:06:43;0.90;;;0.90;;
47155;SDS011;32908;52.344;16.858;2023-04-24T14:09:11;2.00;;;1.00;;
47155;SDS011;32908;52.344;16.858;2023-04-24T14:11:39;4.70;;;1.20;;
47155;SDS011;32908;52.344;16.858;2023-04-24T14:14:07;4.00;;;1.20;;
47155;SDS011;32908;52.344;16.858;2023-04-24T14:16:35;1.50;;;1.20;;
47155;SDS011;32908;52.344;16.858;2023-04-24T14:19:03;1.70;;;1.40;;
47155;SDS011;32908;52.344;16.858;2023-04-24T14:21:31;2.70;;;1.30;;
47155;SDS011;32908;52.344;16.858;2023-04-24T14:24:00;2.90;;;1.40;;
47155;SDS011;32908;52.344;16.858;2023-04-24T14:26:28;2.10;;;1.20;;
47155;SDS011;32908;52.344;16.858;2023-04-24T14:28:56;1.80;;;1.20;;
47155;SDS011;32908;52.344;16.858;2023-04-24T14:31:25;5.20;;;1.90;;
47155;SDS011;32908;52.344;16.858;2023-04-24T14:33:54;2.10;;;1.30;;
47155;SDS011;32908;52.344;16.858;2023-04-24T14:36:22;2.00;;;1.50;;
47155;SDS011;32908;52.344;16.858;2023-04-24T14:38:50;2.50;;;1.60;;
47155;SDS011;32908;52.344;16.858;2023-04-24T14:41:17;3.50;;;1.60;;